Time;durP1;ratioP1;P1;durP2;ratioP2;P2;SDS_P1;SDS_P2;PMS_P1;PMS_P2;Temp;Humidity;BMP_temperature;BMP_pressure;BME280_temperature;BME280_humidity;BME280_pressure;Samples;Min_cycle;Max_cycle;Signal;HPM_P1;HPM_P2
2023/04/25 00:01:54;;;;;;;31.85;24.67;;;8.20;99.90;;;;;;4953262;28;20487;-71
2023/04/25 00:04:21;;;;;;;32.10;23.05;;;8.20;99.90;;;;;;4949425;28;20109;-64
2023/04/25 00:06:48;;;;;;;38.17;26.40;;;8.20;99.90;;;;;;4949250;28;20141;-63
2023/04/25 00:09:15;;;;;;;37.30;26.33;;;8.20;99.90;;;;;;4945853;28;20354;-69
2023/04/25 00:11:42;;;;;;;35.70;24.55;;;8.20;99.90;;;;;;4944058;28;21524;-64
2023/04/25 00:14:09;;;;;;;37.28;24.25;;;8.30;99.90;;;;;;4942013;28;20047;-64
2023/04/25 00:16:36;;;;;;;30.27;23.88;;;8.30;99.90;;;;;;4932804;28;20129;-76
2023/04/25 00:19:04;;;;;;;35.63;24.50;;;8.30;99.90;;;;;;4952268;28;20130;-61
2023/04/25 00:21:33;;;;;;;34.55;25.30;;;8.30;99.90;;;;;;4932140;28;20048;-73
2023/04/25 00:24:00;;;;;;;32.85;23.63;;;8.30;99.90;;;;;;4930389;28;20054;-70
2023/04/25 00:26:27;;;;;;;38.53;26.67;;;8.30;99.90;;;;;;4945318;28;20074;-65
2023/04/25 00:28:55;;;;;;;42.10;28.58;;;8.30;99.90;;;;;;4932714;28;20580;-61
2023/04/25 00:31:22;;;;;;;41.67;24.42;;;8.30;99.90;;;;;;4933938;28;20054;-72
2023/04/25 00:33:49;;;;;;;35.75;27.40;;;8.40;99.90;;;;;;4963932;28;20062;-62
2023/04/25 00:36:17;;;;;;;39.55;26.65;;;8.40;99.90;;;;;;4944402;28;20528;-64
2023/04/25 00:38:43;;;;;;;37.63;26.88;;;8.40;99.90;;;;;;4948347;28;20040;-66
2023/04/25 00:41:11;;;;;;;39.40;26.55;;;8.40;99.90;;;;;;4935424;28;20047;-67
2023/04/25 00:43:40;;;;;;;42.22;28.10;;;8.40;99.90;;;;;;4956846;28;20047;-70
2023/04/25 00:46:07;;;;;;;38.47;28.20;;;8.40;99.90;;;;;;4943740;28;20071;-77
2023/04/25 00:48:33;;;;;;;42.75;28.92;;;8.40;99.90;;;;;;4950101;28;20054;-65
2023/04/25 00:51:01;;;;;;;44.80;28.92;;;8.40;99.90;;;;;;4946083;28;20460;-63
2023/04/25 00:53:29;;;;;;;44.03;30.25;;;8.50;99.90;;;;;;4949100;28;20059;-68
2023/04/25 00:55:56;;;;;;;42.58;28.75;;;8.50;99.90;;;;;;4946557;28;20137;-66
2023/04/25 00:58:23;;;;;;;44.63;28.23;;;8.50;99.90;;;;;;4961387;28;20051;-64
2023/04/25 01:00:51;;;;;;;42.47;29.90;;;8.50;99.90;;;;;;4948537;28;20155;-66
2023/04/25 01:03:22;;;;;;;44.80;28.80;;;8.50;99.90;;;;;;4950273;28;20047;-70
2023/04/25 01:05:50;;;;;;;41.40;28.45;;;8.60;99.90;;;;;;4962814;28;20398;-66
2023/04/25 01:08:17;;;;;;;47.95;29.92;;;8.60;99.90;;;;;;4943432;28;20059;-72
2023/04/25 01:10:44;;;;;;;48.55;29.52;;;8.60;99.90;;;;;;4943206;28;20070;-67
2023/04/25 01:13:11;;;;;;;48.33;29.33;;;8.60;99.90;;;;;;4950815;28;20073;-65
2023/04/25 01:15:38;;;;;;;46.38;28.88;;;8.60;99.90;;;;;;4932409;28;20183;-65
2023/04/25 01:18:06;;;;;;;45.42;27.05;;;8.60;99.90;;;;;;4947114;28;20109;-66
2023/04/25 01:20:33;;;;;;;52.17;26.80;;;8.60;99.90;;;;;;4949103;28;20050;-65
2023/04/25 01:23:02;;;;;;;46.72;27.73;;;8.70;99.90;;;;;;4944559;28;20075;-66
2023/04/25 01:25:30;;;;;;;46.33;26.40;;;8.70;99.90;;;;;;4940594;28;20039;-63
2023/04/25 01:27:58;;;;;;;49.88;27.75;;;8.60;99.90;;;;;;4960127;28;20084;-68
2023/04/25 01:30:29;;;;;;;44.03;26.10;;;8.70;99.90;;;;;;4945275;28;20047;-63
2023/04/25 01:32:57;;;;;;;41.55;21.40;;;8.70;99.90;;;;;;4946180;28;20052;-64
2023/04/25 01:35:24;;;;;;;45.33;19.58;;;8.70;99.90;;;;;;4940009;28;20624;-64
2023/04/25 01:37:53;;;;;;;42.30;20.20;;;8.60;99.90;;;;;;4955616;28;20055;-66
2023/04/25 01:40:21;;;;;;;39.47;18.15;;;8.70;99.90;;;;;;4960331;28;20070;-67
2023/04/25 01:42:50;;;;;;;41.58;18.02;;;8.60;99.90;;;;;;4936005;28;20063;-74
2023/04/25 01:45:17;;;;;;;46.17;18.38;;;8.60;99.90;;;;;;4931099;29;20049;-67
2023/04/25 01:47:48;;;;;;;40.25;18.33;;;8.60;99.90;;;;;;4958720;28;20517;-63
2023/04/25 01:50:17;;;;;;;28.50;16.33;;;8.60;99.90;;;;;;4945233;28;20052;-63
2023/04/25 01:52:45;;;;;;;33.78;16.38;;;8.50;99.90;;;;;;4962785;28;20050;-63
2023/04/25 01:55:12;;;;;;;52.10;17.67;;;8.50;99.90;;;;;;4964291;28;20497;-63
2023/04/25 01:57:48;;;;;;;35.22;16.15;;;8.50;99.90;;;;;;4923566;29;20513;-67
2023/04/25 02:00:16;;;;;;;31.67;15.40;;;8.40;99.90;;;;;;4937651;29;20138;-63
2023/04/25 02:02:43;;;;;;;29.05;15.40;;;8.50;99.90;;;;;;4935636;29;20098;-65
2023/04/25 02:05:20;;;;;;;28.88;16.08;;;8.50;99.90;;;;;;4964617;28;20150;-67
2023/04/25 02:07:48;;;;;;;31.90;16.52;;;8.50;99.90;;;;;;4949014;28;20469;-62
2023/04/25 02:10:15;;;;;;;27.85;15.07;;;8.50;99.90;;;;;;4931388;28;20051;-76
2023/04/25 02:13:11;;;;;;;31.63;14.52;;;8.50;99.90;;;;;;4947028;28;20070;-67
2023/04/25 02:16:01;;;;;;;29.67;16.50;;;8.40;99.90;;;;;;4952870;28;20055;-64
2023/04/25 02:18:29;;;;;;;22.95;13.13;;;8.30;99.90;;;;;;4965369;28;20055;-68
2023/04/25 02:20:57;;;;;;;22.05;13.60;;;8.30;99.90;;;;;;4963072;28;20075;-65
2023/04/25 02:23:24;;;;;;;26.30;13.25;;;8.20;99.90;;;;;;4950464;28;20066;-64
2023/04/25 02:25:52;;;;;;;21.45;13.52;;;8.20;99.90;;;;;;4949728;28;20130;-64
2023/04/25 02:28:19;;;;;;;22.50;12.85;;;8.20;99.90;;;;;;4942345;28;20103;-75
2023/04/25 02:30:46;;;;;;;24.73;13.60;;;8.20;99.90;;;;;;4948569;28;20914;-68
2023/04/25 02:33:13;;;;;;;21.48;13.07;;;8.10;99.90;;;;;;4965997;28;20070;-66
2023/04/25 02:35:40;;;;;;;23.20;12.50;;;8.10;99.90;;;;;;4957884;28;20053;-64
2023/04/25 02:38:07;;;;;;;22.10;11.63;;;8.00;99.90;;;;;;4939480;29;20052;-67
2023/04/25 02:40:34;;;;;;;21.20;11.35;;;8.00;99.90;;;;;;4963824;28;20134;-71
2023/04/25 02:43:00;;;;;;;21.63;11.77;;;8.00;99.90;;;;;;4947528;28;20146;-66
2023/04/25 02:45:27;;;;;;;27.65;12.10;;;7.90;99.90;;;;;;4951111;28;20055;-65
2023/04/25 02:47:55;;;;;;;20.17;11.00;;;7.90;99.90;;;;;;4942239;28;20059;-63
2023/04/25 02:50:22;;;;;;;21.80;11.38;;;7.80;99.90;;;;;;4945722;28;20046;-67
2023/04/25 02:52:49;;;;;;;18.65;10.55;;;7.80;99.90;;;;;;4947658;28;20932;-65
2023/04/25 02:55:22;;;;;;;23.95;11.70;;;7.70;99.90;;;;;;4963060;28;20125;-67
2023/04/25 02:57:51;;;;;;;21.02;11.90;;;7.80;99.90;;;;;;4964916;28;20051;-64
2023/04/25 03:00:30;;;;;;;24.20;12.10;;;7.80;99.90;;;;;;4956541;28;20059;-67
2023/04/25 03:02:57;;;;;;;19.00;10.07;;;7.70;99.90;;;;;;4962454;28;20442;-64
2023/04/25 03:05:24;;;;;;;25.13;10.88;;;7.70;99.90;;;;;;4960543;28;20055;-64
2023/04/25 03:07:51;;;;;;;27.83;12.52;;;7.70;99.90;;;;;;4956892;28;20051;-65
2023/04/25 03:10:18;;;;;;;25.38;10.95;;;7.60;99.90;;;;;;4943219;28;20561;-66
2023/04/25 03:12:45;;;;;;;17.20;11.68;;;7.60;99.90;;;;;;4943497;28;20134;-67
2023/04/25 03:15:12;;;;;;;17.35;11.88;;;7.50;99.90;;;;;;4945079;28;20060;-64
2023/04/25 03:17:39;;;;;;;16.52;9.55;;;7.40;99.90;;;;;;4943783;28;20068;-69
2023/04/25 03:20:08;;;;;;;16.90;9.70;;;7.40;99.90;;;;;;4942169;28;20502;-63
2023/04/25 03:22:36;;;;;;;15.73;9.50;;;7.40;99.90;;;;;;4958510;28;20400;-69
2023/04/25 03:25:03;;;;;;;19.33;11.05;;;7.40;99.90;;;;;;4956424;28;20055;-65
2023/04/25 03:27:30;;;;;;;19.88;10.80;;;7.30;99.90;;;;;;4965170;28;20106;-64
2023/04/25 03:29:57;;;;;;;17.85;11.25;;;7.30;99.90;;;;;;4961963;28;20422;-65
2023/04/25 03:32:24;;;;;;;16.70;11.70;;;7.30;99.90;;;;;;4947271;28;20759;-63
2023/04/25 03:34:51;;;;;;;16.50;10.20;;;7.30;99.90;;;;;;4960656;28;20083;-63
2023/04/25 03:37:18;;;;;;;15.65;10.40;;;7.20;99.90;;;;;;4948924;28;20073;-64
2023/04/25 03:39:45;;;;;;;16.77;10.25;;;7.30;99.90;;;;;;4956090;28;20051;-65
2023/04/25 03:42:12;;;;;;;17.40;10.07;;;7.30;99.90;;;;;;4958869;28;20062;-63
2023/04/25 03:44:39;;;;;;;15.73;10.52;;;7.30;99.90;;;;;;4941162;28;20043;-64
2023/04/25 03:47:06;;;;;;;16.08;10.05;;;7.30;99.90;;;;;;4939897;28;20052;-63
2023/04/25 03:49:34;;;;;;;15.25;10.85;;;7.20;99.90;;;;;;4942790;29;20115;-64
2023/04/25 03:52:02;;;;;;;18.42;10.82;;;7.20;99.90;;;;;;4950275;28;20054;-67
2023/04/25 03:54:38;;;;;;;16.17;9.48;;;7.30;99.90;;;;;;4942453;29;20056;-64
2023/04/25 03:57:15;;;;;;;16.80;11.05;;;7.20;99.90;;;;;;4928435;28;20398;-64
2023/04/25 03:59:42;;;;;;;15.98;8.75;;;7.20;99.90;;;;;;4956307;28;20141;-63
2023/04/25 04:02:11;;;;;;;18.88;11.18;;;7.20;99.90;;;;;;4946877;28;20402;-64
2023/04/25 04:04:39;;;;;;;16.17;9.57;;;7.20;99.90;;;;;;4947222;28;20047;-65
2023/04/25 04:07:06;;;;;;;13.02;9.65;;;7.30;99.90;;;;;;4962104;28;20166;-65
2023/04/25 04:09:36;;;;;;;12.70;9.95;;;7.30;99.90;;;;;;4961386;28;20047;-64
2023/04/25 04:12:07;;;;;;;15.65;10.32;;;7.20;99.90;;;;;;4955021;28;20055;-63
2023/04/25 04:14:36;;;;;;;16.95;10.15;;;7.20;99.90;;;;;;4963424;28;20055;-63
2023/04/25 04:17:03;;;;;;;11.40;9.27;;;7.20;99.90;;;;;;4945922;28;20472;-64
2023/04/25 04:19:30;;;;;;;14.20;8.80;;;7.20;99.90;;;;;;4962759;28;20151;-68
2023/04/25 04:22:13;;;;;;;13.00;9.68;;;7.10;99.90;;;;;;4948496;28;20155;-69
2023/04/25 04:24:43;;;;;;;16.10;10.30;;;7.10;99.90;;;;;;4954783;28;20453;-68
2023/04/25 04:27:12;;;;;;;12.65;9.20;;;7.20;99.90;;;;;;4957595;28;20126;-64
2023/04/25 04:29:53;;;;;;;14.73;9.60;;;7.20;99.90;;;;;;4946199;28;20113;-65
2023/04/25 04:32:30;;;;;;;15.25;9.90;;;7.20;99.90;;;;;;4943650;28;20599;-67
2023/04/25 04:34:57;;;;;;;13.20;9.65;;;7.20;99.90;;;;;;4949385;28;20068;-70
2023/04/25 04:37:25;;;;;;;12.38;9.05;;;7.20;99.90;;;;;;4955730;28;20040;-66
2023/04/25 04:39:52;;;;;;;14.40;9.45;;;7.20;99.90;;;;;;4959779;28;20047;-70
2023/04/25 04:42:39;;;;;;;13.75;9.63;;;7.20;99.90;;;;;;4946324;28;20106;-68
2023/04/25 04:45:31;;;;;;;16.25;10.18;;;7.30;99.90;;;;;;4948214;28;20504;-70
2023/04/25 04:48:11;;;;;;;12.95;9.75;;;7.40;99.90;;;;;;4960001;28;20055;-68
2023/04/25 04:51:16;;;;;;;11.10;8.45;;;7.40;99.90;;;;;;4919533;29;20512;-64
2023/04/25 04:54:06;;;;;;;11.77;8.38;;;7.40;99.90;;;;;;4896879;29;20502;-70
2023/04/25 04:56:52;;;;;;;12.77;9.60;;;7.40;99.90;;;;;;4951556;28;20066;-63
2023/04/25 04:59:37;;;;;;;12.90;8.80;;;7.40;99.90;;;;;;4961527;28;20519;-66
2023/04/25 05:02:21;;;;;;;12.93;8.43;;;7.40;99.90;;;;;;4943134;28;20059;-73
2023/04/25 05:05:00;;;;;;;11.85;8.65;;;7.40;99.90;;;;;;4934776;28;20051;-64
2023/04/25 05:07:53;;;;;;;8.93;6.68;;;7.40;99.90;;;;;;4924962;28;20055;-76
2023/04/25 05:10:41;;;;;;;8.65;7.75;;;7.50;99.90;;;;;;4941969;28;20051;-64
2023/04/25 05:13:34;;;;;;;12.95;9.02;;;7.50;99.90;;;;;;4944053;28;20458;-64
2023/04/25 05:16:20;;;;;;;11.32;8.57;;;7.50;99.90;;;;;;4942181;28;20409;-72
2023/04/25 05:19:07;;;;;;;12.35;8.52;;;7.50;99.90;;;;;;4950695;28;20063;-65
2023/04/25 05:21:45;;;;;;;11.48;9.15;;;7.50;99.90;;;;;;4962564;28;20106;-64
2023/04/25 05:24:35;;;;;;;11.13;8.70;;;7.60;99.90;;;;;;4948301;28;20052;-65
2023/04/25 05:27:08;;;;;;;10.85;8.18;;;7.70;99.90;;;;;;4945949;28;20067;-67
2023/04/25 05:29:48;;;;;;;14.52;8.15;;;7.80;99.90;;;;;;4960540;28;20627;-69
2023/04/25 05:32:23;;;;;;;13.32;9.63;;;7.80;99.90;;;;;;4926992;28;20133;-64
2023/04/25 05:34:51;;;;;;;10.85;8.77;;;7.80;99.90;;;;;;4959497;28;20051;-64
2023/04/25 05:37:23;;;;;;;9.60;8.43;;;7.90;99.90;;;;;;4956465;28;20047;-67
2023/04/25 05:40:06;;;;;;;12.15;8.25;;;7.90;99.90;;;;;;4961170;28;20085;-75
2023/04/25 05:42:45;;;;;;;11.05;7.70;;;7.90;99.90;;;;;;4940540;28;20059;-69
2023/04/25 05:45:30;;;;;;;9.43;8.18;;;8.00;99.90;;;;;;4950582;28;20535;-68
2023/04/25 05:48:00;;;;;;;12.93;8.60;;;8.00;99.90;;;;;;4943847;28;20090;-68
2023/04/25 05:50:54;;;;;;;9.30;7.03;;;8.00;99.90;;;;;;4942678;28;20060;-63
2023/04/25 05:53:40;;;;;;;7.28;6.50;;;8.10;99.90;;;;;;4939574;28;20058;-71
2023/04/25 05:56:08;;;;;;;10.45;7.95;;;8.10;99.90;;;;;;4939233;28;20052;-66
2023/04/25 05:58:35;;;;;;;8.63;6.90;;;8.10;99.90;;;;;;4947919;28;20043;-64
2023/04/25 06:01:02;;;;;;;9.15;7.60;;;8.10;99.90;;;;;;4945504;28;20154;-63
2023/04/25 06:03:30;;;;;;;9.77;7.10;;;8.10;99.90;;;;;;4951775;28;20573;-64
2023/04/25 06:05:58;;;;;;;11.00;7.75;;;8.10;99.90;;;;;;4956500;28;20106;-68
2023/04/25 06:08:25;;;;;;;9.32;8.43;;;8.10;99.90;;;;;;4958989;28;20060;-68
2023/04/25 06:10:52;;;;;;;9.18;8.18;;;8.10;99.90;;;;;;4941580;28;20402;-64
2023/04/25 06:13:19;;;;;;;10.85;8.25;;;8.10;99.90;;;;;;4958079;28;20130;-71
2023/04/25 06:15:46;;;;;;;10.68;9.05;;;8.10;99.90;;;;;;4956354;28;20775;-62
2023/04/25 06:18:13;;;;;;;11.93;9.40;;;8.10;99.90;;;;;;4943282;28;20071;-65
2023/04/25 06:20:40;;;;;;;9.68;8.68;;;8.20;99.90;;;;;;4943948;28;20423;-63
2023/04/25 06:23:07;;;;;;;9.25;7.82;;;8.10;99.90;;;;;;4946755;28;20339;-69
2023/04/25 06:25:47;;;;;;;11.63;8.27;;;8.10;99.90;;;;;;4953532;28;20114;-67
2023/04/25 06:28:14;;;;;;;11.20;9.18;;;8.10;99.90;;;;;;4947713;28;20106;-65
2023/04/25 06:30:43;;;;;;;9.70;8.70;;;8.10;99.90;;;;;;4940061;28;20085;-65
2023/04/25 06:33:13;;;;;;;9.55;8.00;;;8.10;99.90;;;;;;4927425;28;20065;-65
2023/04/25 06:35:41;;;;;;;11.43;9.07;;;8.10;99.90;;;;;;4938525;28;20059;-63
2023/04/25 06:38:11;;;;;;;9.75;8.75;;;8.20;99.90;;;;;;4954732;28;20054;-68
2023/04/25 06:40:39;;;;;;;10.95;8.90;;;8.20;99.90;;;;;;4962159;28;20382;-65
2023/04/25 06:43:08;;;;;;;10.30;8.23;;;8.20;99.90;;;;;;4947017;28;20051;-69
2023/04/25 06:45:56;;;;;;;9.90;8.90;;;8.20;99.90;;;;;;4956860;28;20102;-67
2023/04/25 06:48:27;;;;;;;9.50;7.75;;;8.10;99.90;;;;;;4944681;28;20054;-73
2023/04/25 06:50:54;;;;;;;11.93;10.00;;;8.20;99.90;;;;;;4956581;28;20059;-71
2023/04/25 06:53:22;;;;;;;13.93;9.35;;;8.30;99.90;;;;;;4959624;28;20459;-64
2023/04/25 06:55:55;;;;;;;11.80;9.40;;;8.50;99.90;;;;;;4944456;28;20043;-65
2023/04/25 06:58:23;;;;;;;9.88;8.95;;;8.50;99.90;;;;;;4945742;28;21027;-67
2023/04/25 07:00:50;;;;;;;11.10;10.00;;;8.60;99.90;;;;;;4941467;28;20051;-63
2023/04/25 07:03:20;;;;;;;11.57;9.63;;;8.80;99.90;;;;;;4963294;28;20055;-77
2023/04/25 07:05:48;;;;;;;11.43;10.07;;;8.90;99.90;;;;;;4947251;28;20055;-69
2023/04/25 07:08:14;;;;;;;11.32;9.60;;;8.90;99.90;;;;;;4951018;28;20142;-68
2023/04/25 07:10:42;;;;;;;11.77;10.57;;;8.90;99.90;;;;;;4936768;28;20060;-66
2023/04/25 07:13:09;;;;;;;11.93;9.75;;;8.90;99.90;;;;;;4943621;28;20059;-69
2023/04/25 07:15:36;;;;;;;9.85;8.40;;;9.00;99.90;;;;;;4928569;29;20457;-68
2023/04/25 07:18:03;;;;;;;12.15;9.50;;;9.10;99.90;;;;;;4932335;28;20521;-67
2023/04/25 07:20:30;;;;;;;11.32;9.68;;;9.20;99.90;;;;;;4925439;29;20082;-71
2023/04/25 07:22:58;;;;;;;12.50;10.00;;;9.30;99.90;;;;;;4931605;28;20110;-64
2023/04/25 07:25:25;;;;;;;14.30;9.00;;;9.20;99.90;;;;;;4935000;28;20063;-64
2023/04/25 07:27:52;;;;;;;13.00;9.13;;;9.10;99.90;;;;;;4956423;28;20548;-66
2023/04/25 07:30:20;;;;;;;11.77;8.20;;;9.20;99.90;;;;;;4940127;28;20096;-67
2023/04/25 07:32:47;;;;;;;8.98;7.18;;;9.30;99.90;;;;;;4948964;28;20825;-66
2023/04/25 07:35:15;;;;;;;10.32;9.23;;;9.30;99.90;;;;;;4942015;28;20046;-67
2023/04/25 07:37:41;;;;;;;12.75;9.65;;;9.40;99.90;;;;;;4946757;28;20051;-65
2023/04/25 07:40:17;;;;;;;10.32;8.40;;;9.30;99.90;;;;;;4942782;28;20071;-64
2023/04/25 07:42:48;;;;;;;11.23;8.35;;;9.40;99.90;;;;;;4956880;28;20066;-65
2023/04/25 07:45:21;;;;;;;11.35;8.00;;;9.40;99.90;;;;;;4947867;28;20047;-69
2023/04/25 07:47:48;;;;;;;11.80;9.05;;;9.30;99.90;;;;;;4941041;28;20613;-66
2023/04/25 07:50:15;;;;;;;11.80;8.85;;;9.30;99.90;;;;;;4951092;28;20422;-62
2023/04/25 07:52:42;;;;;;;12.45;8.95;;;9.30;99.90;;;;;;4942374;28;20058;-66
2023/04/25 07:55:22;;;;;;;10.88;9.43;;;9.30;99.90;;;;;;4938706;28;20626;-66
2023/04/25 07:58:07;;;;;;;11.65;8.68;;;9.30;99.90;;;;;;4951916;28;20145;-62
2023/04/25 08:00:36;;;;;;;10.80;8.57;;;9.20;99.90;;;;;;4942664;28;20497;-69
2023/04/25 08:03:32;;;;;;;9.75;8.75;;;9.20;99.90;;;;;;4939339;28;20052;-64
2023/04/25 08:06:02;;;;;;;11.70;10.50;;;9.40;99.90;;;;;;4953146;28;20118;-65
2023/04/25 08:08:40;;;;;;;15.15;9.75;;;9.50;99.90;;;;;;4951570;28;20380;-69
2023/04/25 08:11:09;;;;;;;11.10;9.77;;;9.60;99.90;;;;;;4956157;28;20580;-63
2023/04/25 08:13:36;;;;;;;14.70;11.45;;;9.70;99.90;;;;;;4954004;28;20066;-62
2023/04/25 08:16:03;;;;;;;12.90;10.27;;;9.70;99.90;;;;;;4942069;28;20992;-71
2023/04/25 08:18:30;;;;;;;13.38;10.30;;;9.80;99.90;;;;;;4956936;28;20055;-63
2023/04/25 08:20:57;;;;;;;14.18;10.63;;;9.80;99.90;;;;;;4948002;28;20513;-64
2023/04/25 08:23:24;;;;;;;14.88;10.85;;;9.80;99.90;;;;;;4933211;28;20066;-68
2023/04/25 08:26:00;;;;;;;14.57;10.52;;;9.80;99.90;;;;;;4938081;28;20541;-70
2023/04/25 08:28:28;;;;;;;13.27;10.45;;;9.80;99.90;;;;;;4939140;28;20073;-68
2023/04/25 08:30:57;;;;;;;13.98;10.70;;;9.90;99.90;;;;;;4954604;28;20059;-63
2023/04/25 08:33:28;;;;;;;14.02;10.10;;;9.80;99.90;;;;;;4944853;28;20134;-66
2023/04/25 08:36:21;;;;;;;12.18;10.30;;;9.90;99.90;;;;;;4940099;28;20059;-66
2023/04/25 08:39:06;;;;;;;12.27;9.93;;;10.10;99.90;;;;;;4957524;28;20066;-65
2023/04/25 08:41:42;;;;;;;12.23;10.80;;;10.00;99.90;;;;;;4952889;28;20090;-69
2023/04/25 08:44:11;;;;;;;12.93;10.38;;;10.20;99.90;;;;;;4940319;28;20058;-66
2023/04/25 08:46:41;;;;;;;12.95;9.90;;;10.30;99.90;;;;;;4957599;28;20089;-66
2023/04/25 08:49:17;;;;;;;12.32;9.32;;;10.40;99.90;;;;;;4957390;28;20050;-65
2023/04/25 08:51:50;;;;;;;12.13;9.40;;;10.50;99.90;;;;;;4939383;28;20043;-72
2023/04/25 08:54:25;;;;;;;11.95;9.32;;;10.50;99.90;;;;;;4944976;28;20173;-66
2023/04/25 08:57:05;;;;;;;10.88;8.40;;;10.60;99.90;;;;;;4962209;28;20462;-71
2023/04/25 08:59:32;;;;;;;12.07;9.75;;;10.80;99.90;;;;;;4936695;28;20126;-71
2023/04/25 09:02:00;;;;;;;11.45;9.30;;;10.80;99.90;;;;;;4936596;28;20063;-69
2023/04/25 09:04:31;;;;;;;11.68;9.90;;;10.80;99.90;;;;;;4954506;28;20047;-66
2023/04/25 09:06:58;;;;;;;11.02;9.15;;;10.90;99.90;;;;;;4947161;28;20466;-64
2023/04/25 09:09:25;;;;;;;10.43;8.15;;;10.80;99.90;;;;;;4954268;28;20070;-65
2023/04/25 09:11:54;;;;;;;12.73;9.45;;;10.80;99.90;;;;;;4954765;28;20043;-65
2023/04/25 09:14:25;;;;;;;10.88;8.88;;;10.90;99.90;;;;;;4946823;28;20066;-68
2023/04/25 09:17:10;;;;;;;11.48;8.93;;;11.00;99.90;;;;;;4952781;28;20150;-67
2023/04/25 09:19:46;;;;;;;10.00;8.90;;;11.20;99.90;;;;;;4942908;28;20047;-71
2023/04/25 09:22:22;;;;;;;11.85;8.52;;;11.20;99.90;;;;;;4951095;28;20055;-69
2023/04/25 09:24:51;;;;;;;15.82;10.32;;;11.20;99.90;;;;;;4953897;28;20230;-63
2023/04/25 09:27:25;;;;;;;12.65;10.57;;;11.30;99.90;;;;;;4949428;28;20051;-71
2023/04/25 09:30:01;;;;;;;10.25;8.65;;;11.30;99.90;;;;;;4952472;28;20063;-70
2023/04/25 09:32:39;;;;;;;14.00;8.75;;;11.30;99.90;;;;;;4950668;28;20070;-69
2023/04/25 09:35:08;;;;;;;17.23;9.68;;;11.10;99.90;;;;;;4955695;28;20151;-64
2023/04/25 09:37:35;;;;;;;13.98;10.88;;;10.80;99.90;;;;;;4956022;28;20055;-67
2023/04/25 09:40:07;;;;;;;15.88;11.40;;;10.50;99.90;;;;;;4940800;28;20067;-66
2023/04/25 09:42:46;;;;;;;17.20;11.65;;;10.40;99.90;;;;;;4953367;28;20158;-64
2023/04/25 09:45:14;;;;;;;14.52;9.65;;;10.60;99.90;;;;;;4950903;28;20063;-63
2023/04/25 09:47:43;;;;;;;10.98;8.50;;;10.60;99.90;;;;;;4932998;29;20449;-66
2023/04/25 09:50:16;;;;;;;11.30;9.50;;;10.50;99.90;;;;;;4936457;28;20106;-63
2023/04/25 09:53:02;;;;;;;11.20;8.57;;;10.30;99.90;;;;;;4935904;28;20121;-67
2023/04/25 09:55:34;;;;;;;11.15;7.70;;;10.30;99.90;;;;;;4955489;28;20070;-69
2023/04/25 09:58:08;;;;;;;9.05;5.75;;;10.60;99.90;;;;;;4949035;28;20075;-64
2023/04/25 10:00:37;;;;;;;9.23;6.78;;;10.80;99.90;;;;;;4955051;28;20051;-70
2023/04/25 10:03:20;;;;;;;6.97;6.05;;;10.90;99.90;;;;;;4936086;28;20067;-71
2023/04/25 10:06:06;;;;;;;8.27;6.03;;;11.00;99.90;;;;;;4956592;28;20061;-70
2023/04/25 10:08:36;;;;;;;9.70;7.78;;;11.00;99.90;;;;;;4935855;28;20058;-67
2023/04/25 10:11:07;;;;;;;9.93;6.88;;;10.90;99.90;;;;;;4958195;28;20075;-68
2023/04/25 10:13:35;;;;;;;13.57;7.18;;;10.80;99.90;;;;;;4942412;28;20385;-68
2023/04/25 10:16:04;;;;;;;11.50;7.47;;;10.80;99.90;;;;;;4944572;28;20051;-65
2023/04/25 10:18:32;;;;;;;10.30;7.15;;;10.60;99.90;;;;;;4949386;28;20071;-67
2023/04/25 10:21:04;;;;;;;12.57;8.07;;;10.50;99.90;;;;;;4944641;28;20146;-69
2023/04/25 10:23:32;;;;;;;10.02;7.80;;;10.30;99.90;;;;;;4937409;28;20058;-66
2023/04/25 10:25:59;;;;;;;13.82;8.80;;;10.30;99.90;;;;;;4941229;28;20138;-66
2023/04/25 10:28:28;;;;;;;15.00;9.63;;;10.30;99.90;;;;;;4946860;28;20102;-64
2023/04/25 10:31:07;;;;;;;15.82;8.25;;;10.30;99.90;;;;;;4949752;28;20058;-68
2023/04/25 10:33:39;;;;;;;9.88;8.10;;;10.30;99.90;;;;;;4942764;28;20051;-70
2023/04/25 10:36:22;;;;;;;17.00;7.03;;;10.30;99.90;;;;;;4944028;28;20051;-69
2023/04/25 10:38:51;;;;;;;6.72;6.13;;;10.20;99.90;;;;;;4948463;28;20065;-65
2023/04/25 10:41:19;;;;;;;11.18;6.18;;;10.40;99.90;;;;;;4944486;28;20051;-66
2023/04/25 10:43:47;;;;;;;6.47;5.53;;;10.50;99.90;;;;;;4947426;28;20173;-68
2023/04/25 10:46:33;;;;;;;4.32;3.92;;;10.50;99.90;;;;;;4946472;28;20469;-63
2023/04/25 10:49:02;;;;;;;7.10;4.68;;;10.70;99.90;;;;;;4954424;28;20055;-69
2023/04/25 10:51:33;;;;;;;6.72;4.30;;;10.80;99.90;;;;;;4944866;28;20149;-72
2023/04/25 10:54:24;;;;;;;5.03;4.53;;;10.70;99.90;;;;;;4938908;28;20047;-76
2023/04/25 10:56:53;;;;;;;5.63;4.40;;;10.70;99.90;;;;;;4931095;28;20506;-68
2023/04/25 10:59:21;;;;;;;7.38;4.88;;;10.60;99.90;;;;;;4937828;28;20150;-67
2023/04/25 11:01:51;;;;;;;5.72;4.88;;;10.70;99.90;;;;;;4932736;28;20052;-76
2023/04/25 11:04:25;;;;;;;6.82;4.10;;;10.80;99.90;;;;;;4941437;28;20138;-76
2023/04/25 11:06:58;;;;;;;4.68;4.20;;;11.10;99.90;;;;;;4933202;28;20062;-68
2023/04/25 11:09:45;;;;;;;8.98;3.80;;;11.20;99.90;;;;;;4943672;28;20043;-70
2023/04/25 11:12:13;;;;;;;4.65;3.78;;;11.30;99.90;;;;;;4938981;28;20139;-65
2023/04/25 11:14:39;;;;;;;3.72;3.22;;;11.30;99.90;;;;;;4945853;28;20071;-64
2023/04/25 11:17:11;;;;;;;6.20;3.72;;;11.20;99.90;;;;;;4942465;28;20058;-64
2023/04/25 11:19:38;;;;;;;6.43;3.35;;;11.40;99.90;;;;;;4949497;28;20055;-64
2023/04/25 11:22:06;;;;;;;5.47;4.10;;;11.40;99.90;;;;;;4938101;28;20059;-65
2023/04/25 11:24:35;;;;;;;6.78;3.78;;;11.30;99.90;;;;;;4945321;28;20047;-68
2023/04/25 11:27:04;;;;;;;5.07;3.55;;;11.40;99.90;;;;;;4935598;28;20142;-65
2023/04/25 11:29:33;;;;;;;3.03;2.50;;;11.60;99.90;;;;;;4939879;28;20074;-68
2023/04/25 11:32:01;;;;;;;3.67;3.38;;;11.40;99.90;;;;;;4941395;28;20063;-68
2023/04/25 11:34:35;;;;;;;5.25;2.75;;;11.60;99.90;;;;;;4947511;28;20058;-65
2023/04/25 11:37:02;;;;;;;6.57;4.05;;;11.60;99.90;;;;;;4950248;28;20047;-63
2023/04/25 11:39:30;;;;;;;5.13;2.60;;;11.80;99.90;;;;;;4941935;28;20083;-64
2023/04/25 11:41:57;;;;;;;4.80;2.80;;;12.00;99.90;;;;;;4945370;28;20063;-68
2023/04/25 11:44:26;;;;;;;7.03;4.13;;;12.20;99.90;;;;;;4940796;28;20055;-66
2023/04/25 11:46:53;;;;;;;2.80;2.50;;;12.20;99.90;;;;;;4944493;28;20070;-64
2023/04/25 11:49:21;;;;;;;6.95;2.33;;;12.10;99.90;;;;;;4946029;28;20051;-66
2023/04/25 11:51:49;;;;;;;9.55;2.83;;;12.20;99.90;;;;;;4941328;28;20055;-68
2023/04/25 11:54:16;;;;;;;5.35;3.20;;;12.30;99.90;;;;;;4935540;28;20058;-64
2023/04/25 11:56:44;;;;;;;4.03;3.13;;;12.40;99.90;;;;;;4937965;28;20043;-68
2023/04/25 11:59:12;;;;;;;3.42;3.13;;;12.60;99.90;;;;;;4942420;28;20062;-67
2023/04/25 12:01:41;;;;;;;2.80;2.55;;;12.70;99.90;;;;;;4943215;28;20046;-70
2023/04/25 12:04:20;;;;;;;2.78;2.17;;;12.70;99.90;;;;;;4937774;28;20058;-64
2023/04/25 12:06:50;;;;;;;3.42;2.45;;;12.70;99.90;;;;;;4941768;28;20450;-69
2023/04/25 12:09:29;;;;;;;5.18;2.60;;;12.70;99.90;;;;;;4938934;28;20063;-70
2023/04/25 12:11:58;;;;;;;4.15;2.65;;;12.80;99.90;;;;;;4925528;29;21031;-69
2023/04/25 12:14:30;;;;;;;6.88;3.22;;;12.80;99.90;;;;;;4938386;28;20098;-67
2023/04/25 12:16:59;;;;;;;6.88;2.50;;;13.00;99.90;;;;;;4941751;28;20071;-66
2023/04/25 12:19:33;;;;;;;4.32;2.00;;;13.00;99.90;;;;;;4940592;28;20134;-65
2023/04/25 12:22:02;;;;;;;3.83;2.63;;;13.10;99.90;;;;;;4950825;28;20151;-69
2023/04/25 12:24:33;;;;;;;4.50;3.55;;;13.10;99.90;;;;;;4947864;28;20103;-70
2023/04/25 12:27:07;;;;;;;4.07;3.20;;;13.00;99.90;;;;;;4930588;28;20506;-67
2023/04/25 12:29:35;;;;;;;5.97;2.92;;;13.10;99.90;;;;;;4945654;28;20055;-69
2023/04/25 12:32:05;;;;;;;;;;;13.10;99.90;;;;;;4941228;28;20045;-67
2023/04/25 12:34:34;;;;;;;4.85;3.38;;;13.10;99.90;;;;;;4946404;28;19977;-63
2023/04/25 12:37:01;;;;;;;3.72;3.03;;;13.20;99.90;;;;;;4937003;28;20051;-66
2023/04/25 12:39:28;;;;;;;4.30;2.85;;;13.20;99.90;;;;;;4920689;29;20775;-65
2023/04/25 12:41:55;;;;;;;4.28;3.53;;;12.90;99.90;;;;;;4937846;28;20069;-65
2023/04/25 12:44:22;;;;;;;3.53;3.03;;;13.00;99.90;;;;;;4943827;28;20047;-70
2023/04/25 12:46:49;;;;;;;8.43;3.13;;;13.20;99.90;;;;;;4938766;28;20055;-67
2023/04/25 12:49:16;;;;;;;8.30;3.92;;;13.20;99.90;;;;;;4937740;28;20059;-66
2023/04/25 12:51:45;;;;;;;3.40;3.10;;;13.40;99.90;;;;;;4942192;28;20066;-64
2023/04/25 12:54:12;;;;;;;4.63;3.28;;;13.50;99.90;;;;;;4941969;28;20047;-65
2023/04/25 12:56:39;;;;;;;13.20;5.05;;;13.50;99.90;;;;;;4941363;28;20576;-64
2023/04/25 12:59:05;;;;;;;4.75;3.50;;;13.50;99.90;;;;;;4923710;28;20052;-74
2023/04/25 13:01:32;;;;;;;5.35;3.63;;;13.60;99.90;;;;;;4940111;28;20484;-65
2023/04/25 13:04:02;;;;;;;3.53;2.83;;;13.70;99.90;;;;;;4940586;28;20438;-73